FCN587 KLBB-MUVR
Flight info
| Callsign | FCN587 |
|---|---|
| Flight time | 2h 42m |
| Altitude | 35000 |
| Route | BOBVE DCT KNEAD DCT LFK DCT TOPEZ DCT HOOCK DCT CULLY DCT EADEN DCT FUNDI LETOV2 |
| Aircraft | A321/M-SDE3FGHIRWY/LB1 |
Departure
| Time | 2026-05-04 12:04 |
|---|---|
| Airport | Lubbock Preston Smith International Airport (KLBB) |
Arrival
| Time | 2026-05-04 14:47 |
|---|---|
| Airport | Juan Gualberto Gomez International Airport (MUVR) |
| Time | Latitude | Longitude | Altitude | Speed | Heading |
|---|---|---|---|---|---|
| 2026-05-04 11:38 | 33.65692 | -101.82308 | 3266 ft | 0 kts | 174° |
| 2026-05-04 11:50 | 33.65693 | -101.82308 | 3265 ft | 2 kts | 174° |
| 2026-05-04 11:50 | 33.65716 | -101.82315 | 3262 ft | 4 kts | 139° |
| 2026-05-04 11:51 | 33.65728 | -101.82340 | 3262 ft | 4 kts | 91° |
| 2026-05-04 11:51 | 33.65722 | -101.82368 | 3261 ft | 4 kts | 44° |
| 2026-05-04 11:51 | 33.65708 | -101.82382 | 3263 ft | 0 kts | 41° |
| 2026-05-04 11:55 | 33.65872 | -101.82348 | 3265 ft | 12 kts | 331° |
| 2026-05-04 11:55 | 33.65952 | -101.82378 | 3266 ft | 11 kts | 352° |
| 2026-05-04 11:56 | 33.66018 | -101.82357 | 3266 ft | 9 kts | 47° |
| 2026-05-04 11:56 | 33.66031 | -101.82286 | 3268 ft | 13 kts | 88° |
| 2026-05-04 11:56 | 33.66033 | -101.82177 | 3270 ft | 12 kts | 90° |
| 2026-05-04 11:56 | 33.66033 | -101.82091 | 3271 ft | 10 kts | 90° |
| 2026-05-04 11:57 | 33.66033 | -101.81967 | 3271 ft | 17 kts | 90° |
| 2026-05-04 11:57 | 33.66033 | -101.81829 | 3267 ft | 16 kts | 89° |
| 2026-05-04 11:57 | 33.66034 | -101.81698 | 3267 ft | 15 kts | 90° |
| 2026-05-04 11:57 | 33.66035 | -101.81583 | 3265 ft | 13 kts | 86° |
| 2026-05-04 11:58 | 33.66036 | -101.81480 | 3264 ft | 12 kts | 90° |
| 2026-05-04 11:58 | 33.66036 | -101.81377 | 3264 ft | 12 kts | 89° |
| 2026-05-04 11:58 | 33.66036 | -101.81278 | 3263 ft | 11 kts | 89° |
| 2026-05-04 11:58 | 33.66037 | -101.81189 | 3262 ft | 11 kts | 89° |
| 2026-05-04 11:59 | 33.66038 | -101.81056 | 3261 ft | 18 kts | 89° |
| 2026-05-04 11:59 | 33.66038 | -101.80911 | 3260 ft | 16 kts | 90° |
| 2026-05-04 11:59 | 33.66039 | -101.80784 | 3261 ft | 14 kts | 89° |
| 2026-05-04 11:59 | 33.66040 | -101.80679 | 3263 ft | 14 kts | 90° |
| 2026-05-04 12:00 | 33.66040 | -101.80538 | 3265 ft | 16 kts | 90° |
| 2026-05-04 12:00 | 33.66040 | -101.80415 | 3264 ft | 13 kts | 89° |
| 2026-05-04 12:00 | 33.66041 | -101.80318 | 3264 ft | 10 kts | 89° |
| 2026-05-04 12:00 | 33.66042 | -101.80198 | 3268 ft | 17 kts | 89° |
| 2026-05-04 12:01 | 33.66043 | -101.80065 | 3268 ft | 15 kts | 89° |
| 2026-05-04 12:01 | 33.66043 | -101.79941 | 3266 ft | 14 kts | 90° |
| 2026-05-04 12:02 | 33.66237 | -101.79767 | 3265 ft | 10 kts | 269° |
| 2026-05-04 12:03 | 33.66237 | -101.79771 | 3265 ft | 0 kts | 269° |
| 2026-05-04 12:03 | 33.66236 | -101.79884 | 3266 ft | 44 kts | 269° |
| 2026-05-04 12:03 | 33.66232 | -101.80533 | 3265 ft | 109 kts | 269° |
| 2026-05-04 12:03 | 33.66222 | -101.81670 | 3269 ft | 160 kts | 269° |
| 2026-05-04 12:04 | 33.66210 | -101.83105 | 3620 ft | 177 kts | 269° |
| 2026-05-04 12:04 | 33.66194 | -101.84586 | 4330 ft | 175 kts | 268° |
| 2026-05-04 12:04 | 33.66167 | -101.86013 | 5099 ft | 171 kts | 264° |
| 2026-05-04 12:04 | 33.65628 | -101.87356 | 5333 ft | 199 kts | 227° |
| 2026-05-04 12:05 | 33.64237 | -101.88002 | 5532 ft | 241 kts | 187° |
| 2026-05-04 12:05 | 33.62489 | -101.87434 | 5664 ft | 285 kts | 151° |
| 2026-05-04 12:05 | 33.61130 | -101.85617 | 5982 ft | 305 kts | 116° |
| 2026-05-04 12:05 | 33.60658 | -101.83128 | 6483 ft | 310 kts | 91° |
| 2026-05-04 12:06 | 33.60611 | -101.80548 | 7118 ft | 310 kts | 90° |
| 2026-05-04 12:06 | 33.60573 | -101.77951 | 7697 ft | 312 kts | 89° |
| 2026-05-04 12:06 | 33.60535 | -101.75370 | 8302 ft | 314 kts | 89° |
| 2026-05-04 12:06 | 33.60456 | -101.72746 | 8914 ft | 317 kts | 95° |
| 2026-05-04 12:07 | 33.60134 | -101.70126 | 9521 ft | 319 kts | 101° |
| 2026-05-04 12:07 | 33.59648 | -101.67521 | 10099 ft | 321 kts | 103° |
| 2026-05-04 12:07 | 33.59083 | -101.64856 | 10293 ft | 339 kts | 104° |
| 2026-05-04 12:07 | 33.58475 | -101.62046 | 10407 ft | 358 kts | 104° |
| 2026-05-04 12:08 | 33.57848 | -101.59080 | 10562 ft | 374 kts | 103° |
| 2026-05-04 12:08 | 33.57229 | -101.56017 | 10980 ft | 381 kts | 103° |
| 2026-05-04 12:08 | 33.56627 | -101.52914 | 11501 ft | 384 kts | 103° |
| 2026-05-04 12:08 | 33.56036 | -101.49777 | 12032 ft | 388 kts | 102° |
| 2026-05-04 12:09 | 33.55445 | -101.46611 | 12565 ft | 391 kts | 102° |
| 2026-05-04 12:09 | 33.54848 | -101.43416 | 13102 ft | 394 kts | 103° |
| 2026-05-04 12:09 | 33.54239 | -101.40196 | 13662 ft | 397 kts | 103° |
| 2026-05-04 12:09 | 33.53630 | -101.37001 | 14131 ft | 401 kts | 103° |
| 2026-05-04 12:10 | 33.52996 | -101.33687 | 14634 ft | 404 kts | 103° |
| 2026-05-04 12:10 | 33.52371 | -101.30437 | 15107 ft | 407 kts | 103° |
| 2026-05-04 12:10 | 33.51734 | -101.27121 | 15622 ft | 410 kts | 103° |
| 2026-05-04 12:10 | 33.51093 | -101.23778 | 16093 ft | 413 kts | 103° |
| 2026-05-04 12:11 | 33.50444 | -101.20410 | 16545 ft | 417 kts | 103° |
| 2026-05-04 12:11 | 33.49788 | -101.17011 | 16992 ft | 421 kts | 103° |
| 2026-05-04 12:11 | 33.49123 | -101.13578 | 17437 ft | 424 kts | 103° |
| 2026-05-04 12:11 | 33.48455 | -101.10125 | 17869 ft | 428 kts | 103° |
| 2026-05-04 12:12 | 33.47780 | -101.06634 | 18288 ft | 431 kts | 103° |
| 2026-05-04 12:12 | 33.47097 | -101.03118 | 18656 ft | 435 kts | 103° |
| 2026-05-04 12:12 | 33.46410 | -100.99583 | 19031 ft | 438 kts | 103° |
| 2026-05-04 12:12 | 33.45716 | -100.96013 | 19350 ft | 442 kts | 103° |
| 2026-05-04 12:13 | 33.45015 | -100.92412 | 19694 ft | 446 kts | 103° |
| 2026-05-04 12:14 | 33.39938 | -100.66523 | 22078 ft | 469 kts | 103° |
| 2026-05-04 12:15 | 33.39189 | -100.62715 | 22407 ft | 472 kts | 103° |
| 2026-05-04 12:15 | 33.38431 | -100.58881 | 22736 ft | 475 kts | 103° |
| 2026-05-04 12:15 | 33.37664 | -100.55017 | 23082 ft | 478 kts | 103° |
| 2026-05-04 12:15 | 33.36878 | -100.51144 | 23402 ft | 481 kts | 106° |
| 2026-05-04 12:16 | 33.35758 | -100.47363 | 23650 ft | 484 kts | 114° |
| 2026-05-04 12:16 | 33.34474 | -100.43680 | 23910 ft | 487 kts | 113° |
| 2026-05-04 12:16 | 33.33174 | -100.39932 | 24178 ft | 490 kts | 113° |
| 2026-05-04 12:16 | 33.31871 | -100.36154 | 24446 ft | 493 kts | 113° |
| 2026-05-04 12:17 | 33.30563 | -100.32361 | 24698 ft | 496 kts | 113° |
| 2026-05-04 12:17 | 33.29245 | -100.28539 | 24953 ft | 498 kts | 113° |
| 2026-05-04 12:17 | 33.27918 | -100.24701 | 25210 ft | 501 kts | 113° |
| 2026-05-04 12:17 | 33.26580 | -100.20846 | 25455 ft | 504 kts | 113° |
| 2026-05-04 12:18 | 33.25234 | -100.16972 | 25705 ft | 506 kts | 113° |
| 2026-05-04 12:18 | 33.23874 | -100.13071 | 25960 ft | 509 kts | 113° |
| 2026-05-04 12:18 | 33.22509 | -100.09159 | 26212 ft | 512 kts | 113° |
| 2026-05-04 12:18 | 33.21135 | -100.05229 | 26452 ft | 514 kts | 113° |
| 2026-05-04 12:19 | 33.19754 | -100.01285 | 26691 ft | 517 kts | 113° |
| 2026-05-04 12:19 | 33.18381 | -99.97364 | 26932 ft | 520 kts | 113° |
| 2026-05-04 12:19 | 33.16985 | -99.93371 | 27168 ft | 522 kts | 113° |
| 2026-05-04 12:19 | 33.15586 | -99.89368 | 27397 ft | 525 kts | 113° |
| 2026-05-04 12:20 | 33.14173 | -99.85338 | 27615 ft | 527 kts | 113° |
| 2026-05-04 12:20 | 33.12754 | -99.81300 | 27839 ft | 530 kts | 113° |
| 2026-05-04 12:20 | 33.11321 | -99.77230 | 28059 ft | 532 kts | 113° |
| 2026-05-04 12:20 | 33.09882 | -99.73156 | 28261 ft | 535 kts | 113° |
| 2026-05-04 12:21 | 33.08435 | -99.69058 | 28466 ft | 537 kts | 113° |
| 2026-05-04 12:21 | 33.06987 | -99.64955 | 28666 ft | 539 kts | 113° |
| 2026-05-04 12:21 | 33.05524 | -99.60818 | 28869 ft | 541 kts | 113° |
| 2026-05-04 12:21 | 33.04058 | -99.56677 | 29067 ft | 544 kts | 113° |
| 2026-05-04 12:22 | 33.02584 | -99.52524 | 29264 ft | 546 kts | 113° |
| 2026-05-04 12:22 | 33.01122 | -99.48405 | 29465 ft | 548 kts | 113° |
| 2026-05-04 12:22 | 32.99632 | -99.44216 | 29685 ft | 550 kts | 113° |
| 2026-05-04 12:22 | 32.98136 | -99.40024 | 29996 ft | 549 kts | 113° |
| 2026-05-04 12:23 | 32.96640 | -99.35842 | 30250 ft | 549 kts | 113° |
| 2026-05-04 12:23 | 32.95142 | -99.31653 | 30446 ft | 551 kts | 113° |
| 2026-05-04 12:23 | 32.93645 | -99.27457 | 30639 ft | 552 kts | 112° |
| 2026-05-04 12:23 | 32.92144 | -99.23246 | 30836 ft | 553 kts | 112° |
| 2026-05-04 12:24 | 32.90639 | -99.19028 | 31042 ft | 555 kts | 113° |
| 2026-05-04 12:24 | 32.89124 | -99.14795 | 31234 ft | 556 kts | 113° |
| 2026-05-04 12:24 | 32.87602 | -99.10562 | 31430 ft | 558 kts | 113° |
| 2026-05-04 12:24 | 32.86090 | -99.06369 | 31652 ft | 559 kts | 113° |
| 2026-05-04 12:25 | 32.84556 | -99.02117 | 31857 ft | 560 kts | 113° |
| 2026-05-04 12:25 | 32.83018 | -98.97860 | 32026 ft | 562 kts | 112° |
| 2026-05-04 12:25 | 32.81471 | -98.93586 | 32219 ft | 563 kts | 112° |
| 2026-05-04 12:25 | 32.79923 | -98.89306 | 32411 ft | 564 kts | 112° |
| 2026-05-04 12:26 | 32.78372 | -98.85012 | 32604 ft | 566 kts | 112° |
| 2026-05-04 12:26 | 32.76819 | -98.80714 | 32794 ft | 567 kts | 112° |
| 2026-05-04 12:26 | 32.75258 | -98.76410 | 32977 ft | 568 kts | 112° |
| 2026-05-04 12:26 | 32.73692 | -98.72106 | 33161 ft | 570 kts | 112° |
| 2026-05-04 12:27 | 32.72115 | -98.67782 | 33349 ft | 571 kts | 112° |
| 2026-05-04 12:27 | 32.70531 | -98.63443 | 33518 ft | 573 kts | 112° |
| 2026-05-04 12:27 | 32.68969 | -98.59160 | 33691 ft | 574 kts | 112° |
| 2026-05-04 12:27 | 32.67384 | -98.54810 | 33859 ft | 575 kts | 112° |
| 2026-05-04 12:28 | 32.65790 | -98.50450 | 34021 ft | 576 kts | 112° |
| 2026-05-04 12:28 | 32.64192 | -98.46087 | 34209 ft | 576 kts | 112° |
| 2026-05-04 12:28 | 32.62594 | -98.41729 | 34434 ft | 576 kts | 112° |
| 2026-05-04 12:28 | 32.60998 | -98.37383 | 34620 ft | 575 kts | 112° |
| 2026-05-04 12:29 | 32.59398 | -98.33035 | 34854 ft | 574 kts | 112° |
| 2026-05-04 12:29 | 32.57801 | -98.28695 | 34931 ft | 573 kts | 112° |
| 2026-05-04 12:29 | 32.54618 | -98.20070 | 34948 ft | 570 kts | 112° |
| 2026-05-04 12:30 | 32.51430 | -98.11462 | 34958 ft | 570 kts | 112° |
| 2026-05-04 12:30 | 32.48249 | -98.02866 | 34968 ft | 570 kts | 112° |
| 2026-05-04 12:31 | 32.45056 | -97.94266 | 34984 ft | 570 kts | 112° |
| 2026-05-04 12:31 | 32.41882 | -97.85749 | 34978 ft | 569 kts | 112° |
| 2026-05-04 12:32 | 32.37069 | -97.72901 | 34935 ft | 569 kts | 112° |
| 2026-05-04 12:33 | 32.33860 | -97.64349 | 34953 ft | 569 kts | 112° |
| 2026-05-04 12:33 | 32.30654 | -97.55792 | 34993 ft | 569 kts | 111° |
| 2026-05-04 12:34 | 32.27431 | -97.47252 | 34997 ft | 569 kts | 112° |
| 2026-05-04 12:34 | 32.24151 | -97.38755 | 35007 ft | 569 kts | 112° |
| 2026-05-04 12:35 | 32.20843 | -97.30340 | 35008 ft | 568 kts | 113° |
| 2026-05-04 12:35 | 32.17520 | -97.21874 | 35023 ft | 568 kts | 112° |
| 2026-05-04 12:36 | 32.14215 | -97.13408 | 34989 ft | 568 kts | 112° |
| 2026-05-04 12:36 | 32.10901 | -97.04952 | 35011 ft | 568 kts | 112° |
| 2026-05-04 12:37 | 32.07581 | -96.96500 | 35016 ft | 568 kts | 113° |
| 2026-05-04 12:37 | 32.04255 | -96.88061 | 35016 ft | 568 kts | 113° |
| 2026-05-04 12:38 | 32.00924 | -96.79635 | 35044 ft | 567 kts | 112° |
| 2026-05-04 12:38 | 31.97590 | -96.71207 | 35042 ft | 567 kts | 112° |
| 2026-05-04 12:39 | 31.94257 | -96.62804 | 35039 ft | 567 kts | 113° |
| 2026-05-04 12:39 | 31.90943 | -96.54463 | 35051 ft | 566 kts | 113° |
| 2026-05-04 12:40 | 31.87595 | -96.46075 | 35043 ft | 566 kts | 112° |
| 2026-05-04 12:40 | 31.84245 | -96.37698 | 35054 ft | 565 kts | 112° |
| 2026-05-04 12:41 | 31.80897 | -96.29331 | 35052 ft | 565 kts | 112° |
| 2026-05-04 12:41 | 31.77548 | -96.20981 | 35049 ft | 565 kts | 112° |
| 2026-05-04 12:42 | 31.74194 | -96.12646 | 35043 ft | 564 kts | 113° |
| 2026-05-04 12:42 | 31.70847 | -96.04376 | 35064 ft | 564 kts | 113° |
| 2026-05-04 12:43 | 31.67482 | -95.96069 | 35067 ft | 563 kts | 113° |
| 2026-05-04 12:43 | 31.64119 | -95.87772 | 35041 ft | 562 kts | 113° |
| 2026-05-04 12:44 | 31.60753 | -95.79491 | 35033 ft | 562 kts | 113° |
| 2026-05-04 12:44 | 31.57387 | -95.71219 | 35037 ft | 562 kts | 113° |
| 2026-05-04 12:45 | 31.54015 | -95.62957 | 35064 ft | 562 kts | 113° |
| 2026-05-04 12:45 | 31.50666 | -95.54759 | 35070 ft | 561 kts | 113° |
| 2026-05-04 12:46 | 31.47295 | -95.46517 | 35070 ft | 561 kts | 113° |
| 2026-05-04 12:46 | 31.43910 | -95.38288 | 35067 ft | 561 kts | 113° |
| 2026-05-04 12:47 | 31.40517 | -95.30072 | 35054 ft | 560 kts | 113° |
| 2026-05-04 12:47 | 31.37131 | -95.21869 | 35062 ft | 560 kts | 113° |
| 2026-05-04 12:48 | 31.33738 | -95.13666 | 35069 ft | 560 kts | 113° |
| 2026-05-04 12:48 | 31.30357 | -95.05536 | 35071 ft | 560 kts | 113° |
| 2026-05-04 12:49 | 31.26957 | -94.97356 | 35072 ft | 559 kts | 113° |
| 2026-05-04 12:49 | 31.23558 | -94.89182 | 35103 ft | 558 kts | 113° |
| 2026-05-04 12:50 | 31.20161 | -94.81037 | 35106 ft | 557 kts | 113° |
| 2026-05-04 12:50 | 31.16767 | -94.72926 | 35101 ft | 556 kts | 114° |
| 2026-05-04 12:51 | 31.13300 | -94.64930 | 35049 ft | 556 kts | 115° |
| 2026-05-04 12:51 | 31.09638 | -94.56974 | 35073 ft | 557 kts | 116° |
| 2026-05-04 12:52 | 31.05947 | -94.49056 | 35094 ft | 555 kts | 116° |
| 2026-05-04 12:52 | 31.02311 | -94.41126 | 35094 ft | 554 kts | 116° |
| 2026-05-04 12:53 | 30.98712 | -94.33197 | 35094 ft | 553 kts | 116° |
| 2026-05-04 12:53 | 30.95111 | -94.25292 | 35095 ft | 552 kts | 116° |
| 2026-05-04 12:54 | 30.91507 | -94.17462 | 35138 ft | 552 kts | 117° |
| 2026-05-04 12:54 | 30.87876 | -94.09605 | 35102 ft | 550 kts | 116° |
| 2026-05-04 12:55 | 30.84263 | -94.01776 | 35110 ft | 548 kts | 116° |
| 2026-05-04 12:55 | 30.80663 | -93.93957 | 35111 ft | 548 kts | 116° |
| 2026-05-04 12:56 | 30.77056 | -93.86161 | 35106 ft | 547 kts | 117° |
| 2026-05-04 12:56 | 30.73440 | -93.78378 | 35129 ft | 547 kts | 117° |
| 2026-05-04 12:57 | 30.69852 | -93.70674 | 35118 ft | 545 kts | 117° |
| 2026-05-04 12:57 | 30.66251 | -93.62937 | 35117 ft | 543 kts | 117° |
| 2026-05-04 12:58 | 30.62652 | -93.55225 | 35115 ft | 543 kts | 117° |
| 2026-05-04 12:58 | 30.59047 | -93.47526 | 35113 ft | 542 kts | 117° |
| 2026-05-04 12:59 | 30.55451 | -93.39841 | 35110 ft | 542 kts | 117° |
| 2026-05-04 12:59 | 30.51841 | -93.32154 | 35110 ft | 542 kts | 118° |
| 2026-05-04 13:00 | 30.48252 | -93.24537 | 35102 ft | 542 kts | 117° |
| 2026-05-04 13:00 | 30.44631 | -93.16865 | 35121 ft | 543 kts | 118° |
| 2026-05-04 13:01 | 30.41006 | -93.09196 | 35125 ft | 543 kts | 118° |
| 2026-05-04 13:01 | 30.37379 | -93.01527 | 35151 ft | 543 kts | 118° |
| 2026-05-04 13:02 | 30.33751 | -92.93876 | 35125 ft | 541 kts | 118° |
| 2026-05-04 13:02 | 30.30130 | -92.86251 | 35132 ft | 541 kts | 118° |
| 2026-05-04 13:03 | 30.26528 | -92.78679 | 35137 ft | 540 kts | 118° |
| 2026-05-04 13:03 | 30.22900 | -92.71068 | 35131 ft | 540 kts | 118° |
| 2026-05-04 13:04 | 30.19265 | -92.63470 | 35147 ft | 540 kts | 118° |
| 2026-05-04 13:04 | 30.15638 | -92.55896 | 35146 ft | 538 kts | 119° |
| 2026-05-04 13:05 | 30.12010 | -92.48349 | 35140 ft | 537 kts | 119° |
| 2026-05-04 13:05 | 30.08388 | -92.40810 | 35102 ft | 536 kts | 118° |
| 2026-05-04 13:06 | 30.04777 | -92.33297 | 35119 ft | 535 kts | 118° |
| 2026-05-04 13:06 | 30.01156 | -92.25788 | 35145 ft | 535 kts | 119° |
| 2026-05-04 13:07 | 29.97560 | -92.18353 | 35153 ft | 533 kts | 119° |
| 2026-05-04 13:07 | 29.93946 | -92.10898 | 35150 ft | 532 kts | 119° |
| 2026-05-04 13:08 | 29.90331 | -92.03462 | 35149 ft | 531 kts | 119° |
| 2026-05-04 13:08 | 29.86719 | -91.96036 | 35140 ft | 531 kts | 119° |
| 2026-05-04 13:09 | 29.83106 | -91.88613 | 35140 ft | 531 kts | 120° |
| 2026-05-04 13:09 | 29.79514 | -91.81258 | 35107 ft | 530 kts | 120° |
| 2026-05-04 13:10 | 29.75905 | -91.73869 | 35126 ft | 529 kts | 120° |
| 2026-05-04 13:10 | 29.72294 | -91.66493 | 35143 ft | 529 kts | 120° |
| 2026-05-04 13:11 | 29.68681 | -91.59132 | 35156 ft | 529 kts | 120° |
| 2026-05-04 13:11 | 29.65055 | -91.51779 | 35173 ft | 528 kts | 120° |
| 2026-05-04 13:12 | 29.61436 | -91.44437 | 35176 ft | 527 kts | 120° |
| 2026-05-04 13:12 | 29.57896 | -91.37134 | 35169 ft | 526 kts | 120° |
| 2026-05-04 13:13 | 29.54370 | -91.29774 | 35158 ft | 526 kts | 120° |
| 2026-05-04 13:13 | 29.50833 | -91.22429 | 35103 ft | 526 kts | 120° |
| 2026-05-04 13:14 | 29.47268 | -91.15087 | 35113 ft | 527 kts | 120° |
| 2026-05-04 13:14 | 29.43661 | -91.07682 | 35138 ft | 537 kts | 120° |
| 2026-05-04 13:15 | 29.39999 | -91.00174 | 35137 ft | 541 kts | 120° |
| 2026-05-04 13:15 | 29.36348 | -90.92683 | 35131 ft | 542 kts | 120° |
| 2026-05-04 13:16 | 29.32668 | -90.85141 | 35127 ft | 542 kts | 120° |
| 2026-05-04 13:16 | 29.28978 | -90.77606 | 35127 ft | 542 kts | 120° |
| 2026-05-04 13:17 | 29.25284 | -90.70077 | 35132 ft | 542 kts | 121° |
| 2026-05-04 13:17 | 29.21589 | -90.62561 | 35103 ft | 542 kts | 121° |
| 2026-05-04 13:18 | 29.17901 | -90.55079 | 35109 ft | 543 kts | 121° |
| 2026-05-04 13:18 | 29.14189 | -90.47553 | 35112 ft | 543 kts | 121° |
| 2026-05-04 13:19 | 29.10471 | -90.40022 | 35124 ft | 544 kts | 121° |
| 2026-05-04 13:19 | 29.06752 | -90.32503 | 35136 ft | 544 kts | 121° |
| 2026-05-04 13:20 | 29.03023 | -90.24990 | 35136 ft | 543 kts | 121° |
| 2026-05-04 13:20 | 28.99307 | -90.17536 | 35138 ft | 543 kts | 121° |
| 2026-05-04 13:21 | 28.95571 | -90.10033 | 35099 ft | 543 kts | 121° |
| 2026-05-04 13:21 | 28.91839 | -90.02548 | 35132 ft | 542 kts | 121° |
| 2026-05-04 13:22 | 28.88114 | -89.95078 | 35151 ft | 541 kts | 121° |
| 2026-05-04 13:22 | 28.84391 | -89.87624 | 35146 ft | 541 kts | 122° |
| 2026-05-04 13:23 | 28.80653 | -89.80179 | 35143 ft | 541 kts | 122° |
| 2026-05-04 13:23 | 28.76918 | -89.72740 | 35140 ft | 540 kts | 122° |
| 2026-05-04 13:24 | 28.73194 | -89.65370 | 35136 ft | 540 kts | 122° |
| 2026-05-04 13:24 | 28.69451 | -89.57949 | 35136 ft | 540 kts | 122° |
| 2026-05-04 13:25 | 28.63838 | -89.46827 | 35127 ft | 539 kts | 121° |
| 2026-05-04 13:25 | 28.60096 | -89.39443 | 35145 ft | 538 kts | 121° |
| 2026-05-04 13:26 | 28.56987 | -89.33317 | 35144 ft | 537 kts | 122° |
| 2026-05-04 13:26 | 28.53250 | -89.25962 | 35143 ft | 537 kts | 121° |
| 2026-05-04 13:27 | 28.48902 | -89.17423 | 35143 ft | 537 kts | 122° |
| 2026-05-04 13:27 | 28.45767 | -89.11273 | 35142 ft | 537 kts | 122° |
| 2026-05-04 13:28 | 28.42048 | -89.03994 | 35138 ft | 536 kts | 122° |
| 2026-05-04 13:28 | 28.38295 | -88.96668 | 35135 ft | 536 kts | 122° |
| 2026-05-04 13:29 | 28.34538 | -88.89343 | 35114 ft | 536 kts | 122° |
| 2026-05-04 13:29 | 28.30793 | -88.82041 | 35134 ft | 535 kts | 122° |
| 2026-05-04 13:30 | 28.27042 | -88.74740 | 35138 ft | 535 kts | 122° |
| 2026-05-04 13:30 | 28.23285 | -88.67459 | 35137 ft | 535 kts | 122° |
| 2026-05-04 13:31 | 28.19548 | -88.60231 | 35136 ft | 535 kts | 122° |
| 2026-05-04 13:31 | 28.15783 | -88.52969 | 35136 ft | 535 kts | 122° |
| 2026-05-04 13:32 | 28.12017 | -88.45705 | 35147 ft | 534 kts | 122° |
| 2026-05-04 13:32 | 28.08248 | -88.38446 | 35141 ft | 535 kts | 122° |
| 2026-05-04 13:33 | 28.04469 | -88.31201 | 35107 ft | 534 kts | 122° |
| 2026-05-04 13:33 | 28.00675 | -88.23969 | 35119 ft | 534 kts | 122° |
| 2026-05-04 13:34 | 27.96887 | -88.16746 | 35126 ft | 534 kts | 122° |
| 2026-05-04 13:34 | 27.93102 | -88.09524 | 35140 ft | 534 kts | 122° |
| 2026-05-04 13:35 | 27.87436 | -87.98694 | 35135 ft | 533 kts | 123° |
| 2026-05-04 13:36 | 27.83674 | -87.91533 | 35133 ft | 533 kts | 123° |
| 2026-05-04 13:36 | 27.79878 | -87.84338 | 35128 ft | 533 kts | 123° |
| 2026-05-04 13:37 | 27.76083 | -87.77143 | 35127 ft | 533 kts | 123° |
| 2026-05-04 13:37 | 27.72283 | -87.69942 | 35129 ft | 533 kts | 123° |
| 2026-05-04 13:38 | 27.68483 | -87.62766 | 35127 ft | 533 kts | 123° |
| 2026-05-04 13:38 | 27.64699 | -87.55639 | 35126 ft | 533 kts | 123° |
| 2026-05-04 13:39 | 27.60887 | -87.48472 | 35132 ft | 533 kts | 123° |
| 2026-05-04 13:39 | 27.57072 | -87.41308 | 35119 ft | 533 kts | 123° |
| 2026-05-04 13:40 | 27.53253 | -87.34148 | 35122 ft | 533 kts | 123° |
| 2026-05-04 13:40 | 27.49431 | -87.26989 | 35128 ft | 533 kts | 123° |
| 2026-05-04 13:41 | 27.45639 | -87.19883 | 35125 ft | 533 kts | 123° |
| 2026-05-04 13:41 | 27.41817 | -87.12749 | 35111 ft | 532 kts | 123° |
| 2026-05-04 13:42 | 27.36070 | -87.02056 | 35124 ft | 532 kts | 123° |
| 2026-05-04 13:42 | 27.32244 | -86.94935 | 35128 ft | 532 kts | 123° |
| 2026-05-04 13:43 | 27.28418 | -86.87825 | 35122 ft | 531 kts | 123° |
| 2026-05-04 13:43 | 27.24584 | -86.80723 | 35124 ft | 531 kts | 123° |
| 2026-05-04 13:44 | 27.20773 | -86.73677 | 35119 ft | 531 kts | 123° |
| 2026-05-04 13:44 | 27.16935 | -86.66587 | 35121 ft | 531 kts | 124° |
| 2026-05-04 13:45 | 27.13086 | -86.59495 | 35088 ft | 531 kts | 124° |
| 2026-05-04 13:45 | 27.09244 | -86.52417 | 35105 ft | 531 kts | 124° |
| 2026-05-04 13:46 | 27.05394 | -86.45349 | 35109 ft | 531 kts | 124° |
| 2026-05-04 13:46 | 27.01573 | -86.38328 | 35115 ft | 531 kts | 124° |
| 2026-05-04 13:47 | 26.97714 | -86.31263 | 35114 ft | 531 kts | 124° |
| 2026-05-04 13:47 | 26.93852 | -86.24203 | 35112 ft | 531 kts | 124° |
| 2026-05-04 13:48 | 26.89990 | -86.17152 | 35123 ft | 531 kts | 124° |
| 2026-05-04 13:48 | 26.86123 | -86.10102 | 35118 ft | 531 kts | 124° |
| 2026-05-04 13:49 | 26.82253 | -86.03052 | 35114 ft | 531 kts | 124° |
| 2026-05-04 13:49 | 26.78405 | -85.96054 | 35087 ft | 531 kts | 124° |
| 2026-05-04 13:50 | 26.74533 | -85.89032 | 35101 ft | 531 kts | 124° |
| 2026-05-04 13:50 | 26.70650 | -85.82003 | 35117 ft | 531 kts | 124° |
| 2026-05-04 13:51 | 26.66776 | -85.74983 | 35118 ft | 530 kts | 124° |
| 2026-05-04 13:51 | 26.62898 | -85.67968 | 35114 ft | 530 kts | 124° |
| 2026-05-04 13:52 | 26.57063 | -85.57466 | 35109 ft | 530 kts | 124° |
| 2026-05-04 13:53 | 26.53206 | -85.50518 | 35110 ft | 530 kts | 124° |
| 2026-05-04 13:53 | 26.49316 | -85.43521 | 35110 ft | 530 kts | 124° |
| 2026-05-04 13:54 | 26.43481 | -85.33058 | 35096 ft | 529 kts | 124° |
| 2026-05-04 13:55 | 26.37645 | -85.22604 | 35100 ft | 529 kts | 124° |
| 2026-05-04 13:55 | 26.31990 | -85.12026 | 35102 ft | 530 kts | 123° |
| 2026-05-04 13:56 | 26.28316 | -85.04977 | 35101 ft | 529 kts | 123° |
| 2026-05-04 13:57 | 26.22697 | -84.94387 | 35095 ft | 529 kts | 123° |
| 2026-05-04 13:58 | 26.15159 | -84.80312 | 35071 ft | 529 kts | 123° |
| 2026-05-04 13:58 | 26.09525 | -84.69760 | 35090 ft | 529 kts | 123° |
| 2026-05-04 13:59 | 26.05760 | -84.62733 | 35095 ft | 528 kts | 124° |
| 2026-05-04 14:00 | 26.00122 | -84.52269 | 35093 ft | 528 kts | 124° |
| 2026-05-04 14:00 | 25.94469 | -84.41762 | 35093 ft | 528 kts | 124° |
| 2026-05-04 14:01 | 25.90700 | -84.34753 | 35089 ft | 528 kts | 124° |
| 2026-05-04 14:02 | 25.85034 | -84.24266 | 35087 ft | 528 kts | 124° |
| 2026-05-04 14:02 | 25.81242 | -84.17291 | 35065 ft | 527 kts | 124° |
| 2026-05-04 14:03 | 25.77487 | -84.10379 | 35082 ft | 527 kts | 124° |
| 2026-05-04 14:03 | 25.73703 | -84.03413 | 35082 ft | 527 kts | 124° |
| 2026-05-04 14:04 | 25.68025 | -83.92982 | 35084 ft | 526 kts | 124° |
| 2026-05-04 14:04 | 25.64240 | -83.86040 | 35082 ft | 526 kts | 124° |
| 2026-05-04 14:05 | 25.58588 | -83.75678 | 35088 ft | 526 kts | 124° |
| 2026-05-04 14:06 | 25.54801 | -83.68757 | 35087 ft | 526 kts | 124° |
| 2026-05-04 14:06 | 25.51006 | -83.61840 | 35083 ft | 526 kts | 124° |
| 2026-05-04 14:07 | 25.47207 | -83.54933 | 35064 ft | 525 kts | 124° |
| 2026-05-04 14:07 | 25.43412 | -83.48027 | 35066 ft | 525 kts | 125° |
| 2026-05-04 14:08 | 25.39645 | -83.41172 | 35075 ft | 525 kts | 125° |
| 2026-05-04 14:08 | 25.35844 | -83.34280 | 35076 ft | 525 kts | 125° |
| 2026-05-04 14:09 | 25.30135 | -83.23965 | 35075 ft | 525 kts | 125° |
| 2026-05-04 14:10 | 25.24428 | -83.13643 | 35074 ft | 525 kts | 125° |
| 2026-05-04 14:10 | 25.20624 | -83.06765 | 35074 ft | 525 kts | 125° |
| 2026-05-04 14:11 | 25.16806 | -82.99900 | 35076 ft | 525 kts | 125° |
| 2026-05-04 14:11 | 25.11097 | -82.89663 | 35071 ft | 524 kts | 125° |
| 2026-05-04 14:12 | 25.07272 | -82.82815 | 35071 ft | 524 kts | 126° |
| 2026-05-04 14:13 | 25.01541 | -82.72553 | 35063 ft | 524 kts | 126° |
| 2026-05-04 14:13 | 24.97721 | -82.65718 | 35060 ft | 524 kts | 126° |
| 2026-05-04 14:14 | 24.93893 | -82.58884 | 35065 ft | 524 kts | 126° |
| 2026-05-04 14:14 | 24.88143 | -82.48641 | 35064 ft | 524 kts | 126° |
| 2026-05-04 14:15 | 24.80497 | -82.35045 | 35032 ft | 524 kts | 126° |
| 2026-05-04 14:16 | 24.76678 | -82.28269 | 35046 ft | 512 kts | 126° |
| 2026-05-04 14:16 | 24.74818 | -82.24962 | 35051 ft | 505 kts | 126° |
| 2026-05-04 14:17 | 24.69285 | -82.15157 | 35012 ft | 503 kts | 127° |
| 2026-05-04 14:17 | 24.65585 | -82.08653 | 34538 ft | 501 kts | 126° |
| 2026-05-04 14:18 | 24.63735 | -82.05402 | 34311 ft | 501 kts | 126° |
| 2026-05-04 14:18 | 24.60047 | -81.98906 | 33823 ft | 501 kts | 126° |
| 2026-05-04 14:19 | 24.56358 | -81.92406 | 33306 ft | 502 kts | 125° |
| 2026-05-04 14:19 | 24.54533 | -81.89197 | 33058 ft | 501 kts | 125° |
| 2026-05-04 14:19 | 24.52686 | -81.85954 | 32804 ft | 500 kts | 126° |
| 2026-05-04 14:19 | 24.50817 | -81.82750 | 32557 ft | 498 kts | 127° |
| 2026-05-04 14:20 | 24.48897 | -81.79590 | 32301 ft | 496 kts | 128° |
| 2026-05-04 14:20 | 24.46947 | -81.76468 | 32056 ft | 495 kts | 128° |
| 2026-05-04 14:20 | 24.44989 | -81.73372 | 31810 ft | 493 kts | 128° |
| 2026-05-04 14:21 | 24.41094 | -81.67195 | 31330 ft | 491 kts | 128° |
| 2026-05-04 14:21 | 24.39170 | -81.64105 | 31085 ft | 490 kts | 128° |
| 2026-05-04 14:21 | 24.37264 | -81.61022 | 30848 ft | 488 kts | 127° |
| 2026-05-04 14:21 | 24.35365 | -81.57940 | 30610 ft | 487 kts | 127° |
| 2026-05-04 14:22 | 24.33469 | -81.54863 | 30369 ft | 486 kts | 127° |
| 2026-05-04 14:22 | 24.31579 | -81.51805 | 30144 ft | 484 kts | 127° |
| 2026-05-04 14:22 | 24.29713 | -81.48797 | 29887 ft | 483 kts | 127° |
| 2026-05-04 14:22 | 24.27824 | -81.45761 | 29613 ft | 481 kts | 127° |
| 2026-05-04 14:23 | 24.24074 | -81.39741 | 29088 ft | 476 kts | 127° |
| 2026-05-04 14:23 | 24.22211 | -81.36748 | 28824 ft | 474 kts | 127° |
| 2026-05-04 14:23 | 24.20360 | -81.33772 | 28559 ft | 472 kts | 127° |
| 2026-05-04 14:24 | 24.18517 | -81.30810 | 28310 ft | 469 kts | 127° |
| 2026-05-04 14:24 | 24.16683 | -81.27864 | 28051 ft | 467 kts | 128° |
| 2026-05-04 14:24 | 24.14858 | -81.24937 | 27801 ft | 464 kts | 128° |
| 2026-05-04 14:24 | 24.13038 | -81.22026 | 27526 ft | 462 kts | 128° |
| 2026-05-04 14:25 | 24.11234 | -81.19140 | 27278 ft | 457 kts | 128° |
| 2026-05-04 14:25 | 24.07700 | -81.13488 | 26351 ft | 450 kts | 127° |
| 2026-05-04 14:25 | 24.05938 | -81.10671 | 25877 ft | 447 kts | 127° |
| 2026-05-04 14:26 | 24.04107 | -81.07955 | 25410 ft | 440 kts | 136° |
| 2026-05-04 14:26 | 24.01822 | -81.05811 | 24955 ft | 427 kts | 153° |
| 2026-05-04 14:26 | 23.99195 | -81.04420 | 24516 ft | 414 kts | 168° |
| 2026-05-04 14:26 | 23.96430 | -81.03798 | 24092 ft | 400 kts | 182° |
| 2026-05-04 14:27 | 23.93707 | -81.03903 | 23667 ft | 387 kts | 195° |
| 2026-05-04 14:27 | 23.91160 | -81.04664 | 23201 ft | 375 kts | 206° |
| 2026-05-04 14:27 | 23.88726 | -81.05639 | 22787 ft | 370 kts | 206° |
| 2026-05-04 14:27 | 23.86323 | -81.06590 | 22395 ft | 365 kts | 205° |
| 2026-05-04 14:28 | 23.83976 | -81.07510 | 21991 ft | 361 kts | 205° |
| 2026-05-04 14:28 | 23.81627 | -81.08427 | 21596 ft | 357 kts | 205° |
| 2026-05-04 14:28 | 23.79302 | -81.09334 | 21182 ft | 353 kts | 205° |
| 2026-05-04 14:28 | 23.76999 | -81.10233 | 20784 ft | 350 kts | 205° |
| 2026-05-04 14:29 | 23.72460 | -81.12011 | 19985 ft | 344 kts | 205° |
| 2026-05-04 14:29 | 23.67989 | -81.13766 | 19196 ft | 339 kts | 205° |
| 2026-05-04 14:30 | 23.65782 | -81.14633 | 18808 ft | 336 kts | 205° |
| 2026-05-04 14:30 | 23.63584 | -81.15494 | 18417 ft | 334 kts | 204° |
| 2026-05-04 14:30 | 23.59270 | -81.17183 | 17601 ft | 328 kts | 204° |
| 2026-05-04 14:31 | 23.57140 | -81.18013 | 17196 ft | 323 kts | 204° |
| 2026-05-04 14:31 | 23.52947 | -81.19654 | 16455 ft | 317 kts | 205° |
| 2026-05-04 14:32 | 23.48817 | -81.21282 | 15646 ft | 314 kts | 205° |
| 2026-05-04 14:32 | 23.46801 | -81.22170 | 15283 ft | 312 kts | 207° |
| 2026-05-04 14:32 | 23.44821 | -81.23117 | 14895 ft | 311 kts | 208° |
| 2026-05-04 14:32 | 23.42856 | -81.24085 | 14512 ft | 310 kts | 208° |
| 2026-05-04 14:33 | 23.40893 | -81.25054 | 14123 ft | 310 kts | 208° |
| 2026-05-04 14:33 | 23.38930 | -81.26016 | 13717 ft | 310 kts | 208° |
| 2026-05-04 14:33 | 23.36990 | -81.26961 | 13311 ft | 308 kts | 208° |
| 2026-05-04 14:33 | 23.35035 | -81.27904 | 12919 ft | 307 kts | 207° |
| 2026-05-04 14:34 | 23.33083 | -81.28840 | 12526 ft | 306 kts | 207° |
| 2026-05-04 14:34 | 23.31139 | -81.29771 | 12136 ft | 305 kts | 207° |
| 2026-05-04 14:34 | 23.29202 | -81.30700 | 11738 ft | 304 kts | 207° |
| 2026-05-04 14:34 | 23.27276 | -81.31622 | 11335 ft | 303 kts | 207° |
| 2026-05-04 14:35 | 23.25349 | -81.32542 | 10950 ft | 302 kts | 207° |
| 2026-05-04 14:35 | 23.23424 | -81.33462 | 10553 ft | 302 kts | 207° |
| 2026-05-04 14:35 | 23.21509 | -81.34376 | 10240 ft | 298 kts | 207° |
| 2026-05-04 14:35 | 23.19647 | -81.35273 | 9990 ft | 287 kts | 210° |
| 2026-05-04 14:36 | 23.17998 | -81.36464 | 9851 ft | 284 kts | 225° |
| 2026-05-04 14:36 | 23.16706 | -81.38072 | 9595 ft | 282 kts | 239° |
| 2026-05-04 14:36 | 23.15702 | -81.39888 | 9213 ft | 280 kts | 241° |
| 2026-05-04 14:36 | 23.14709 | -81.41700 | 8803 ft | 279 kts | 241° |
| 2026-05-04 14:37 | 23.13716 | -81.43509 | 8400 ft | 279 kts | 240° |
| 2026-05-04 14:37 | 23.12735 | -81.45291 | 7996 ft | 278 kts | 240° |
| 2026-05-04 14:37 | 23.11748 | -81.47080 | 7579 ft | 274 kts | 240° |
| 2026-05-04 14:37 | 23.10775 | -81.48846 | 7188 ft | 273 kts | 240° |
| 2026-05-04 14:38 | 23.09798 | -81.50615 | 6784 ft | 273 kts | 240° |
| 2026-05-04 14:38 | 23.08821 | -81.52383 | 6380 ft | 273 kts | 240° |
| 2026-05-04 14:38 | 23.07858 | -81.54130 | 6124 ft | 261 kts | 240° |
| 2026-05-04 14:38 | 23.06958 | -81.55761 | 5959 ft | 242 kts | 240° |
| 2026-05-04 14:39 | 23.06111 | -81.57292 | 5531 ft | 232 kts | 240° |
| 2026-05-04 14:39 | 23.05311 | -81.58739 | 5319 ft | 213 kts | 240° |
| 2026-05-04 14:39 | 23.04570 | -81.60079 | 5174 ft | 201 kts | 240° |
| 2026-05-04 14:40 | 23.03182 | -81.62579 | 4791 ft | 190 kts | 240° |
| 2026-05-04 14:40 | 23.02415 | -81.63738 | 4500 ft | 190 kts | 225° |
| 2026-05-04 14:40 | 23.01336 | -81.64562 | 4223 ft | 191 kts | 205° |
| 2026-05-04 14:40 | 23.00069 | -81.64926 | 3941 ft | 193 kts | 186° |
| 2026-05-04 14:41 | 22.98721 | -81.64787 | 3566 ft | 200 kts | 165° |
| 2026-05-04 14:41 | 22.97445 | -81.64087 | 3104 ft | 211 kts | 146° |
| 2026-05-04 14:41 | 22.95067 | -81.62302 | 2709 ft | 202 kts | 147° |
| 2026-05-04 14:42 | 22.93621 | -81.60079 | 2513 ft | 173 kts | 93° |
| 2026-05-04 14:42 | 22.93799 | -81.58832 | 2511 ft | 166 kts | 65° |
| 2026-05-04 14:42 | 22.94403 | -81.57775 | 2523 ft | 164 kts | 53° |
| 2026-05-04 14:43 | 22.95056 | -81.56752 | 2521 ft | 164 kts | 54° |
| 2026-05-04 14:43 | 22.95707 | -81.55727 | 2435 ft | 165 kts | 54° |
| 2026-05-04 14:43 | 22.96354 | -81.54710 | 2279 ft | 163 kts | 54° |
| 2026-05-04 14:43 | 22.96999 | -81.53693 | 2070 ft | 163 kts | 54° |
| 2026-05-04 14:44 | 22.97631 | -81.52698 | 1867 ft | 161 kts | 54° |
| 2026-05-04 14:44 | 22.98263 | -81.51701 | 1666 ft | 160 kts | 54° |
| 2026-05-04 14:44 | 22.98892 | -81.50711 | 1454 ft | 159 kts | 54° |
| 2026-05-04 14:44 | 22.99516 | -81.49726 | 1242 ft | 158 kts | 54° |
| 2026-05-04 14:45 | 23.00139 | -81.48743 | 1043 ft | 158 kts | 55° |
| 2026-05-04 14:45 | 23.00759 | -81.47765 | 840 ft | 157 kts | 54° |
| 2026-05-04 14:45 | 23.01370 | -81.46792 | 641 ft | 157 kts | 54° |
| 2026-05-04 14:45 | 23.01988 | -81.45819 | 462 ft | 157 kts | 59° |
| 2026-05-04 14:46 | 23.02617 | -81.44840 | 253 ft | 157 kts | 56° |
| 2026-05-04 14:46 | 23.03212 | -81.43910 | 214 ft | 139 kts | 53° |
| 2026-05-04 14:46 | 23.03683 | -81.43163 | 210 ft | 95 kts | 55° |
| 2026-05-04 14:46 | 23.03976 | -81.42704 | 209 ft | 63 kts | 56° |
| 2026-05-04 14:47 | 23.04155 | -81.42420 | 212 ft | 37 kts | 56° |
| 2026-05-04 14:47 | 23.04251 | -81.42265 | 213 ft | 22 kts | 56° |
| 2026-05-04 14:47 | 23.04293 | -81.42174 | 213 ft | 11 kts | 77° |
| 2026-05-04 14:47 | 23.04314 | -81.42168 | 217 ft | 2 kts | 291° |
| 2026-05-04 14:48 | 23.04294 | -81.42209 | 215 ft | 16 kts | 227° |
| 2026-05-04 14:48 | 23.04218 | -81.42320 | 215 ft | 19 kts | 236° |
| 2026-05-04 14:48 | 23.04145 | -81.42435 | 218 ft | 19 kts | 235° |
| 2026-05-04 14:48 | 23.04069 | -81.42553 | 211 ft | 19 kts | 235° |
| 2026-05-04 14:49 | 23.04018 | -81.42633 | 211 ft | 19 kts | 236° |
| 2026-05-04 14:49 | 23.03944 | -81.42752 | 209 ft | 19 kts | 233° |
| 2026-05-04 14:49 | 23.03868 | -81.42870 | 210 ft | 19 kts | 235° |
| 2026-05-04 14:49 | 23.03774 | -81.43017 | 213 ft | 17 kts | 235° |
| 2026-05-04 14:50 | 23.03710 | -81.43125 | 215 ft | 16 kts | 248° |
| 2026-05-04 14:50 | 23.03723 | -81.43201 | 211 ft | 15 kts | 296° |
| 2026-05-04 14:50 | 23.03783 | -81.43334 | 211 ft | 14 kts | 296° |
| 2026-05-04 14:50 | 23.03841 | -81.43418 | 211 ft | 14 kts | 323° |
| 2026-05-04 14:51 | 23.03892 | -81.43458 | 210 ft | 13 kts | 323° |
| 2026-05-04 14:51 | 23.03937 | -81.43492 | 212 ft | 0 kts | 324° |